sensor_id;sensor_type;location;lat;lon;timestamp;P1;durP1;ratioP1;P2;durP2;ratioP2
57609;SDS011;43435;46.186;9.024;2023-05-07T07:41:56;1.58;;;0.68;;
57609;SDS011;43435;46.186;9.024;2023-05-07T07:44:21;0.70;;;0.57;;
57609;SDS011;43435;46.186;9.024;2023-05-07T07:46:46;1.30;;;0.73;;
57609;SDS011;43435;46.186;9.024;2023-05-07T07:49:11;1.60;;;0.52;;
57609;SDS011;43435;46.186;9.024;2023-05-07T07:51:37;0.97;;;0.50;;
57609;SDS011;43435;46.186;9.024;2023-05-07T07:54:02;1.17;;;0.70;;
57609;SDS011;43435;46.186;9.024;2023-05-07T07:56:27;1.85;;;0.90;;
57609;SDS011;43435;46.186;9.024;2023-05-07T07:58:53;1.00;;;0.70;;
57609;SDS011;43435;46.186;9.024;2023-05-07T08:01:18;1.07;;;0.60;;
57609;SDS011;43435;46.186;9.024;2023-05-07T08:03:43;1.67;;;0.57;;
57609;SDS011;43435;46.186;9.024;2023-05-07T08:06:08;1.00;;;0.63;;
57609;SDS011;43435;46.186;9.024;2023-05-07T08:08:33;1.20;;;0.70;;
57609;SDS011;43435;46.186;9.024;2023-05-07T08:10:59;2.43;;;0.60;;
57609;SDS011;43435;46.186;9.024;2023-05-07T08:13:24;0.83;;;0.50;;
57609;SDS011;43435;46.186;9.024;2023-05-07T08:15:49;1.00;;;0.70;;
57609;SDS011;43435;46.186;9.024;2023-05-07T08:18:14;1.07;;;0.80;;
57609;SDS011;43435;46.186;9.024;2023-05-07T08:20:40;2.25;;;1.08;;
57609;SDS011;43435;46.186;9.024;2023-05-07T08:23:06;2.13;;;0.77;;
57609;SDS011;43435;46.186;9.024;2023-05-07T08:25:36;1.33;;;0.80;;
57609;SDS011;43435;46.186;9.024;2023-05-07T08:28:02;0.95;;;0.70;;
57609;SDS011;43435;46.186;9.024;2023-05-07T08:30:28;2.08;;;0.70;;
57609;SDS011;43435;46.186;9.024;2023-05-07T08:32:53;0.83;;;0.67;;
57609;SDS011;43435;46.186;9.024;2023-05-07T08:35:18;1.67;;;0.60;;
57609;SDS011;43435;46.186;9.024;2023-05-07T08:37:43;1.13;;;0.70;;
57609;SDS011;43435;46.186;9.024;2023-05-07T08:40:12;1.00;;;0.70;;
57609;SDS011;43435;46.186;9.024;2023-05-07T08:42:37;1.08;;;0.70;;
57609;SDS011;43435;46.186;9.024;2023-05-07T08:45:03;1.73;;;0.88;;
57609;SDS011;43435;46.186;9.024;2023-05-07T08:47:33;2.42;;;0.80;;
57609;SDS011;43435;46.186;9.024;2023-05-07T08:49:59;2.58;;;0.90;;
57609;SDS011;43435;46.186;9.024;2023-05-07T08:52:24;2.08;;;0.80;;
57609;SDS011;43435;46.186;9.024;2023-05-07T08:54:51;1.50;;;1.00;;
57609;SDS011;43435;46.186;9.024;2023-05-07T08:57:16;1.13;;;0.80;;
57609;SDS011;43435;46.186;9.024;2023-05-07T08:59:41;2.50;;;1.20;;
57609;SDS011;43435;46.186;9.024;2023-05-07T09:02:07;2.08;;;1.02;;
57609;SDS011;43435;46.186;9.024;2023-05-07T09:04:34;2.72;;;1.52;;
57609;SDS011;43435;46.186;9.024;2023-05-07T09:06:59;3.17;;;1.40;;
57609;SDS011;43435;46.186;9.024;2023-05-07T09:09:31;1.70;;;1.00;;
57609;SDS011;43435;46.186;9.024;2023-05-07T09:11:57;3.35;;;1.20;;
57609;SDS011;43435;46.186;9.024;2023-05-07T09:14:24;3.00;;;1.50;;
57609;SDS011;43435;46.186;9.024;2023-05-07T09:16:51;2.70;;;1.33;;
57609;SDS011;43435;46.186;9.024;2023-05-07T09:19:21;2.25;;;1.58;;
57609;SDS011;43435;46.186;9.024;2023-05-07T09:21:46;1.30;;;1.08;;
57609;SDS011;43435;46.186;9.024;2023-05-07T09:24:11;1.50;;;1.23;;
57609;SDS011;43435;46.186;9.024;2023-05-07T09:26:40;1.52;;;1.10;;
57609;SDS011;43435;46.186;9.024;2023-05-07T09:29:06;2.58;;;1.05;;
57609;SDS011;43435;46.186;9.024;2023-05-07T09:31:32;2.13;;;1.40;;
57609;SDS011;43435;46.186;9.024;2023-05-07T09:33:57;3.70;;;0.90;;
57609;SDS011;43435;46.186;9.024;2023-05-07T09:36:22;1.70;;;0.90;;
57609;SDS011;43435;46.186;9.024;2023-05-07T09:38:47;2.08;;;0.90;;
57609;SDS011;43435;46.186;9.024;2023-05-07T09:41:14;1.30;;;0.82;;
57609;SDS011;43435;46.186;9.024;2023-05-07T09:43:40;1.20;;;1.10;;
57609;SDS011;43435;46.186;9.024;2023-05-07T09:46:06;1.60;;;1.20;;
57609;SDS011;43435;46.186;9.024;2023-05-07T09:48:32;2.67;;;1.27;;
57609;SDS011;43435;46.186;9.024;2023-05-07T09:51:01;2.10;;;1.20;;
57609;SDS011;43435;46.186;9.024;2023-05-07T09:53:29;1.75;;;1.20;;
57609;SDS011;43435;46.186;9.024;2023-05-07T09:55:54;1.27;;;0.93;;
57609;SDS011;43435;46.186;9.024;2023-05-07T09:58:20;2.38;;;1.40;;
57609;SDS011;43435;46.186;9.024;2023-05-07T10:00:47;2.03;;;1.48;;
57609;SDS011;43435;46.186;9.024;2023-05-07T10:03:13;1.85;;;1.10;;
57609;SDS011;43435;46.186;9.024;2023-05-07T10:05:39;1.17;;;1.00;;
57609;SDS011;43435;46.186;9.024;2023-05-07T10:08:05;1.60;;;1.15;;
57609;SDS011;43435;46.186;9.024;2023-05-07T10:10:30;1.38;;;0.90;;
57609;SDS011;43435;46.186;9.024;2023-05-07T10:12:56;1.40;;;1.05;;
57609;SDS011;43435;46.186;9.024;2023-05-07T10:15:21;1.55;;;1.00;;
57609;SDS011;43435;46.186;9.024;2023-05-07T10:17:47;2.38;;;0.90;;
57609;SDS011;43435;46.186;9.024;2023-05-07T10:20:13;1.85;;;1.10;;
57609;SDS011;43435;46.186;9.024;2023-05-07T10:22:39;1.88;;;1.15;;
57609;SDS011;43435;46.186;9.024;2023-05-07T10:25:06;1.70;;;1.00;;
57609;SDS011;43435;46.186;9.024;2023-05-07T10:27:34;2.50;;;1.02;;
57609;SDS011;43435;46.186;9.024;2023-05-07T10:30:08;2.63;;;1.20;;
57609;SDS011;43435;46.186;9.024;2023-05-07T10:32:39;3.00;;;0.95;;
57609;SDS011;43435;46.186;9.024;2023-05-07T10:35:05;1.50;;;1.00;;
57609;SDS011;43435;46.186;9.024;2023-05-07T11:02:37;3.67;;;1.40;;
57609;SDS011;43435;46.186;9.024;2023-05-07T11:05:19;2.53;;;1.38;;
57609;SDS011;43435;46.186;9.024;2023-05-07T11:07:47;1.60;;;1.30;;
57609;SDS011;43435;46.186;9.024;2023-05-07T11:10:18;2.15;;;1.33;;
57609;SDS011;43435;46.186;9.024;2023-05-07T14:30:28;7.28;;;3.58;;
57609;SDS011;43435;46.186;9.024;2023-05-07T14:32:53;3.47;;;3.17;;
57609;SDS011;43435;46.186;9.024;2023-05-07T14:35:18;4.17;;;3.20;;
57609;SDS011;43435;46.186;9.024;2023-05-07T14:37:43;3.57;;;3.27;;
57609;SDS011;43435;46.186;9.024;2023-05-07T14:40:09;4.32;;;3.28;;
57609;SDS011;43435;46.186;9.024;2023-05-07T14:42:34;6.10;;;3.60;;
57609;SDS011;43435;46.186;9.024;2023-05-07T14:45:00;3.63;;;2.80;;
57609;SDS011;43435;46.186;9.024;2023-05-07T14:47:25;3.87;;;3.30;;
57609;SDS011;43435;46.186;9.024;2023-05-07T14:49:50;4.57;;;3.40;;
57609;SDS011;43435;46.186;9.024;2023-05-07T14:52:16;5.25;;;3.63;;
57609;SDS011;43435;46.186;9.024;2023-05-07T14:54:41;4.33;;;3.90;;
57609;SDS011;43435;46.186;9.024;2023-05-07T14:57:07;5.25;;;3.70;;
57609;SDS011;43435;46.186;9.024;2023-05-07T14:59:33;4.32;;;3.45;;
57609;SDS011;43435;46.186;9.024;2023-05-07T15:01:58;5.25;;;3.88;;
57609;SDS011;43435;46.186;9.024;2023-05-07T15:04:24;5.47;;;3.60;;
57609;SDS011;43435;46.186;9.024;2023-05-07T15:06:49;5.38;;;3.58;;
57609;SDS011;43435;46.186;9.024;2023-05-07T15:09:14;3.03;;;1.90;;
57609;SDS011;43435;46.186;9.024;2023-05-07T15:11:40;2.40;;;1.80;;
57609;SDS011;43435;46.186;9.024;2023-05-07T15:14:05;2.73;;;1.90;;
57609;SDS011;43435;46.186;9.024;2023-05-07T15:16:30;3.77;;;1.60;;
57609;SDS011;43435;46.186;9.024;2023-05-07T15:18:56;3.78;;;1.52;;
57609;SDS011;43435;46.186;9.024;2023-05-07T15:21:21;4.20;;;1.73;;
57609;SDS011;43435;46.186;9.024;2023-05-07T15:23:47;2.27;;;1.30;;
57609;SDS011;43435;46.186;9.024;2023-05-07T15:26:12;2.87;;;1.37;;
57609;SDS011;43435;46.186;9.024;2023-05-07T15:28:37;2.77;;;1.83;;
57609;SDS011;43435;46.186;9.024;2023-05-07T15:31:03;2.47;;;1.63;;
57609;SDS011;43435;46.186;9.024;2023-05-07T15:33:28;3.45;;;1.50;;
57609;SDS011;43435;46.186;9.024;2023-05-07T15:35:53;3.93;;;2.97;;
57609;SDS011;43435;46.186;9.024;2023-05-07T15:38:18;5.10;;;3.93;;
57609;SDS011;43435;46.186;9.024;2023-05-07T15:40:43;5.67;;;3.60;;
57609;SDS011;43435;46.186;9.024;2023-05-07T15:43:09;3.72;;;2.97;;
57609;SDS011;43435;46.186;9.024;2023-05-07T15:45:38;4.88;;;3.83;;
57609;SDS011;43435;46.186;9.024;2023-05-07T15:48:04;4.47;;;3.47;;
57609;SDS011;43435;46.186;9.024;2023-05-07T15:50:30;6.83;;;3.43;;
57609;SDS011;43435;46.186;9.024;2023-05-07T15:52:55;4.07;;;3.67;;
57609;SDS011;43435;46.186;9.024;2023-05-07T15:55:20;7.13;;;3.70;;
57609;SDS011;43435;46.186;9.024;2023-05-07T15:57:45;5.50;;;3.67;;
57609;SDS011;43435;46.186;9.024;2023-05-07T16:00:11;8.77;;;3.60;;
57609;SDS011;43435;46.186;9.024;2023-05-07T16:02:38;6.70;;;4.07;;
57609;SDS011;43435;46.186;9.024;2023-05-07T16:05:05;5.18;;;3.17;;
57609;SDS011;43435;46.186;9.024;2023-05-07T16:07:32;5.30;;;4.05;;
57609;SDS011;43435;46.186;9.024;2023-05-07T16:09:57;4.80;;;3.90;;
57609;SDS011;43435;46.186;9.024;2023-05-07T16:12:23;5.33;;;3.77;;
57609;SDS011;43435;46.186;9.024;2023-05-07T16:14:48;5.17;;;3.60;;
57609;SDS011;43435;46.186;9.024;2023-05-07T16:17:15;4.68;;;3.40;;
57609;SDS011;43435;46.186;9.024;2023-05-07T16:19:40;5.07;;;3.65;;
57609;SDS011;43435;46.186;9.024;2023-05-07T16:22:05;5.53;;;3.73;;
57609;SDS011;43435;46.186;9.024;2023-05-07T16:24:31;5.20;;;3.67;;
57609;SDS011;43435;46.186;9.024;2023-05-07T16:26:56;6.50;;;3.63;;
57609;SDS011;43435;46.186;9.024;2023-05-07T16:29:21;4.83;;;3.43;;
57609;SDS011;43435;46.186;9.024;2023-05-07T16:31:47;6.20;;;4.00;;
57609;SDS011;43435;46.186;9.024;2023-05-07T16:34:12;5.37;;;2.57;;
57609;SDS011;43435;46.186;9.024;2023-05-07T16:36:38;2.53;;;1.80;;
57609;SDS011;43435;46.186;9.024;2023-05-07T16:39:03;2.97;;;1.87;;
57609;SDS011;43435;46.186;9.024;2023-05-07T16:41:28;3.33;;;2.00;;
57609;SDS011;43435;46.186;9.024;2023-05-07T16:43:54;2.63;;;1.88;;
57609;SDS011;43435;46.186;9.024;2023-05-07T16:46:19;4.15;;;2.17;;
57609;SDS011;43435;46.186;9.024;2023-05-07T16:48:44;3.60;;;1.67;;
57609;SDS011;43435;46.186;9.024;2023-05-07T16:51:09;4.00;;;1.92;;
57609;SDS011;43435;46.186;9.024;2023-05-07T16:53:35;4.65;;;2.10;;
57609;SDS011;43435;46.186;9.024;2023-05-07T16:56:09;4.32;;;2.28;;
57609;SDS011;43435;46.186;9.024;2023-05-07T16:58:34;4.25;;;2.25;;
57609;SDS011;43435;46.186;9.024;2023-05-07T17:01:00;3.95;;;2.22;;
57609;SDS011;43435;46.186;9.024;2023-05-07T17:03:26;7.93;;;2.33;;
57609;SDS011;43435;46.186;9.024;2023-05-07T17:05:52;3.67;;;2.28;;
57609;SDS011;43435;46.186;9.024;2023-05-07T17:08:18;4.55;;;2.45;;
57609;SDS011;43435;46.186;9.024;2023-05-07T17:10:43;4.27;;;2.20;;
57609;SDS011;43435;46.186;9.024;2023-05-07T17:13:11;6.22;;;2.70;;
57609;SDS011;43435;46.186;9.024;2023-05-07T17:15:36;3.58;;;2.40;;
57609;SDS011;43435;46.186;9.024;2023-05-07T17:18:01;6.93;;;2.50;;
57609;SDS011;43435;46.186;9.024;2023-05-07T17:20:27;6.65;;;2.17;;
57609;SDS011;43435;46.186;9.024;2023-05-07T17:22:52;3.58;;;2.28;;
57609;SDS011;43435;46.186;9.024;2023-05-07T17:25:17;4.03;;;2.43;;
57609;SDS011;43435;46.186;9.024;2023-05-07T17:27:43;4.73;;;2.40;;
57609;SDS011;43435;46.186;9.024;2023-05-07T17:30:08;5.57;;;3.20;;
57609;SDS011;43435;46.186;9.024;2023-05-07T17:32:33;9.23;;;4.63;;
57609;SDS011;43435;46.186;9.024;2023-05-07T17:34:59;7.55;;;3.33;;
57609;SDS011;43435;46.186;9.024;2023-05-07T17:37:24;4.43;;;2.88;;
57609;SDS011;43435;46.186;9.024;2023-05-07T17:39:49;5.15;;;2.67;;
57609;SDS011;43435;46.186;9.024;2023-05-07T17:42:16;7.18;;;3.40;;
57609;SDS011;43435;46.186;9.024;2023-05-07T17:44:41;5.70;;;3.53;;
57609;SDS011;43435;46.186;9.024;2023-05-07T17:47:07;3.97;;;2.83;;
57609;SDS011;43435;46.186;9.024;2023-05-07T17:49:32;3.97;;;2.92;;
57609;SDS011;43435;46.186;9.024;2023-05-07T17:51:57;7.30;;;2.97;;
57609;SDS011;43435;46.186;9.024;2023-05-07T17:54:22;7.00;;;2.97;;
57609;SDS011;43435;46.186;9.024;2023-05-07T17:56:51;5.07;;;2.38;;
57609;SDS011;43435;46.186;9.024;2023-05-07T17:59:17;5.63;;;3.40;;
57609;SDS011;43435;46.186;9.024;2023-05-07T18:01:42;4.07;;;2.73;;
57609;SDS011;43435;46.186;9.024;2023-05-07T18:04:08;7.13;;;2.90;;
57609;SDS011;43435;46.186;9.024;2023-05-07T18:06:33;4.87;;;2.30;;
57609;SDS011;43435;46.186;9.024;2023-05-07T18:08:58;5.60;;;3.43;;
57609;SDS011;43435;46.186;9.024;2023-05-07T18:11:24;4.00;;;2.60;;
57609;SDS011;43435;46.186;9.024;2023-05-07T18:13:49;3.90;;;2.30;;
57609;SDS011;43435;46.186;9.024;2023-05-07T18:16:14;8.37;;;2.50;;
57609;SDS011;43435;46.186;9.024;2023-05-07T18:18:40;4.60;;;2.90;;
57609;SDS011;43435;46.186;9.024;2023-05-07T18:21:05;5.35;;;2.63;;
57609;SDS011;43435;46.186;9.024;2023-05-07T18:23:30;4.28;;;2.30;;
57609;SDS011;43435;46.186;9.024;2023-05-07T18:25:59;6.80;;;3.80;;
57609;SDS011;43435;46.186;9.024;2023-05-07T18:28:24;4.83;;;3.07;;
57609;SDS011;43435;46.186;9.024;2023-05-07T18:30:49;4.77;;;2.40;;
57609;SDS011;43435;46.186;9.024;2023-05-07T18:33:14;3.97;;;2.60;;
57609;SDS011;43435;46.186;9.024;2023-05-07T18:35:40;4.67;;;2.70;;
57609;SDS011;43435;46.186;9.024;2023-05-07T18:38:05;7.37;;;3.50;;
57609;SDS011;43435;46.186;9.024;2023-05-07T18:40:30;5.73;;;2.90;;
57609;SDS011;43435;46.186;9.024;2023-05-07T18:42:55;6.03;;;3.00;;
57609;SDS011;43435;46.186;9.024;2023-05-07T18:45:20;5.87;;;2.83;;
57609;SDS011;43435;46.186;9.024;2023-05-07T18:47:48;5.33;;;2.97;;
57609;SDS011;43435;46.186;9.024;2023-05-07T18:50:13;5.50;;;3.60;;
57609;SDS011;43435;46.186;9.024;2023-05-07T18:52:40;5.75;;;3.13;;
57609;SDS011;43435;46.186;9.024;2023-05-07T18:55:05;7.73;;;4.67;;
57609;SDS011;43435;46.186;9.024;2023-05-07T18:57:31;5.93;;;3.50;;
57609;SDS011;43435;46.186;9.024;2023-05-07T18:59:56;4.47;;;3.43;;
57609;SDS011;43435;46.186;9.024;2023-05-07T19:02:21;4.55;;;3.30;;
57609;SDS011;43435;46.186;9.024;2023-05-07T19:04:47;4.80;;;2.55;;
57609;SDS011;43435;46.186;9.024;2023-05-07T19:07:12;4.97;;;3.30;;
57609;SDS011;43435;46.186;9.024;2023-05-07T19:09:38;5.30;;;2.60;;
57609;SDS011;43435;46.186;9.024;2023-05-07T19:12:03;4.97;;;2.85;;
57609;SDS011;43435;46.186;9.024;2023-05-07T19:14:28;6.18;;;2.95;;
57609;SDS011;43435;46.186;9.024;2023-05-07T19:16:54;4.80;;;3.20;;
57609;SDS011;43435;46.186;9.024;2023-05-07T19:19:20;5.07;;;3.42;;
57609;SDS011;43435;46.186;9.024;2023-05-07T19:21:45;6.22;;;3.95;;
57609;SDS011;43435;46.186;9.024;2023-05-07T19:24:10;6.10;;;3.67;;
57609;SDS011;43435;46.186;9.024;2023-05-07T19:26:35;7.50;;;3.50;;
57609;SDS011;43435;46.186;9.024;2023-05-07T19:29:01;6.77;;;3.77;;
57609;SDS011;43435;46.186;9.024;2023-05-07T19:31:26;6.75;;;4.10;;
57609;SDS011;43435;46.186;9.024;2023-05-07T19:33:51;4.75;;;3.47;;
57609;SDS011;43435;46.186;9.024;2023-05-07T19:36:16;4.53;;;3.40;;
57609;SDS011;43435;46.186;9.024;2023-05-07T19:38:42;7.10;;;3.30;;
57609;SDS011;43435;46.186;9.024;2023-05-07T19:41:08;7.05;;;3.67;;
57609;SDS011;43435;46.186;9.024;2023-05-07T19:43:33;5.23;;;3.57;;
57609;SDS011;43435;46.186;9.024;2023-05-07T19:46:02;7.75;;;3.88;;
57609;SDS011;43435;46.186;9.024;2023-05-07T19:48:27;7.10;;;3.60;;
57609;SDS011;43435;46.186;9.024;2023-05-07T19:50:52;5.20;;;3.20;;
57609;SDS011;43435;46.186;9.024;2023-05-07T20:06:12;6.43;;;2.85;;
57609;SDS011;43435;46.186;9.024;2023-05-07T20:08:38;4.47;;;3.00;;
57609;SDS011;43435;46.186;9.024;2023-05-07T20:11:03;5.18;;;3.17;;
57609;SDS011;43435;46.186;9.024;2023-05-07T20:13:28;7.77;;;3.23;;
57609;SDS011;43435;46.186;9.024;2023-05-07T20:15:59;4.57;;;2.93;;
57609;SDS011;43435;46.186;9.024;2023-05-07T20:18:25;6.45;;;3.30;;
57609;SDS011;43435;46.186;9.024;2023-05-07T20:20:51;6.15;;;3.42;;
57609;SDS011;43435;46.186;9.024;2023-05-07T20:23:16;4.37;;;3.30;;
57609;SDS011;43435;46.186;9.024;2023-05-07T20:25:41;6.95;;;3.00;;
57609;SDS011;43435;46.186;9.024;2023-05-07T20:28:07;6.22;;;3.03;;
57609;SDS011;43435;46.186;9.024;2023-05-07T20:30:32;9.17;;;2.90;;
57609;SDS011;43435;46.186;9.024;2023-05-07T20:32:57;5.77;;;2.93;;
57609;SDS011;43435;46.186;9.024;2023-05-07T20:35:22;3.83;;;2.67;;
57609;SDS011;43435;46.186;9.024;2023-05-07T20:37:48;5.85;;;2.80;;
57609;SDS011;43435;46.186;9.024;2023-05-07T20:40:13;5.27;;;2.80;;
57609;SDS011;43435;46.186;9.024;2023-05-07T20:42:38;3.72;;;2.67;;
57609;SDS011;43435;46.186;9.024;2023-05-07T20:45:04;4.47;;;2.50;;
57609;SDS011;43435;46.186;9.024;2023-05-07T20:47:30;3.42;;;2.45;;
57609;SDS011;43435;46.186;9.024;2023-05-07T20:49:55;4.28;;;2.40;;
57609;SDS011;43435;46.186;9.024;2023-05-07T20:52:20;3.00;;;2.33;;
57609;SDS011;43435;46.186;9.024;2023-05-07T20:54:46;3.33;;;2.53;;
57609;SDS011;43435;46.186;9.024;2023-05-07T20:57:13;3.70;;;2.47;;
57609;SDS011;43435;46.186;9.024;2023-05-07T20:59:39;4.47;;;2.40;;
57609;SDS011;43435;46.186;9.024;2023-05-07T21:02:04;4.85;;;3.00;;
57609;SDS011;43435;46.186;9.024;2023-05-07T21:04:30;3.47;;;2.58;;
57609;SDS011;43435;46.186;9.024;2023-05-07T21:06:56;4.72;;;3.00;;
